Arbovale, West Virginia
Current Conditions -  °F | °C
As of 8:51 AM on Saturday 25 Oct 2014 (Local Time) from KEKN Reporting Station
Overcast Overcast  
Wind Chill: 35°   Ceiling: 4400
Heat Index: 35°   Visibility: 7mi
Dew Point: 35°   Wind: 0mph
Humidity: 100%   Direction: NA
Pressure: 30.05"   Gusts: NA
Location:  38.44°N, 79.82°W
Report Text: KEKN 251251Z AUTO 00000KT 7SM OVC044 02/02 A3005 RMK AO2 SLP195 I1000 T00170017 TSNO
Loading
Personal Weather Stations






























Interactive Weather Map
Tropical Storm Tracking
New forecast layout! Learn more

10-Day Weather Forecast

Advertisements
Track Severe Weather on mobile